Arma, KS

10:27 AM CST on January 26, 2015 (GMT -0600)
APRSWXNET Arma KS US | Change Station
CLOSE
Current Station
Personal Weather Station
Location: Mulberry, KS
Elevation: 974 ft
Nearby Weather Stations

Elev 974 ft 37.54 °N, 94.67 °W | Updated 24 minutes ago

Clear
Clear
38 °F
Feels Like 32 °F
N
8
Wind Variable Wind from SSW
Gusts 15.0 mph

Today
High -- | Low -- °F
--% Chance of Precip.
Yesterday
High -- | Low -- °F
Precip. -- in
7:27 AM 5:36 PM
Waxing Crescent, 44% visible
Pressure 30.05 in
Visibility 10.0 miles
Clouds Clear
Windchill 32 °F
Dew Point 33 °F
Humidity 83%
Rainfall 0.00 in
Snow Depth Not available.
UV 2 out of 12
Pollen .70 out of 12
Air Quality Not available.
Flu Activity Not available.
METAR KPTS 261555Z AUTO 23008KT 10SM CLR 04/02 A3005 RMK AO2 T00440021

More Conditions Fewer Conditions

Pressure 30.05 in
Visibility 10.0 miles
Clouds Clear
Windchill 32 °F
Dew Point 33 °F
Humidity 83%
Rainfall 0.00 in
Snow Depth Not available.
UV 2 out of 12
Pollen .70 out of 12
Air Quality Not available.
Flu Activity Not available.
METAR KPTS 261555Z AUTO 23008KT 10SM CLR 04/02 A3005 RMK AO2 T00440021

More Conditions Fewer Conditions

10-Day Weather Forecast

Almanac

Astronomy

Jan. 26, 2015 Rise Set
Actual Time
Civil Twilight
Nautical Twilight
Astronomical Twilight
Moon
Length of Visible Light
Length of Day
Tomorrow will be .
, % of the Moon is Illuminated

Today's Extremes

State Highs State Lows

Community

WunderPhotos

Upload Photos

1,790,272 photos uploaded!

WunderBlogs® & News

Nearby

Air Quality

  Air Quality AQ Index Pollutant
Not available.

Snow Depth

Station Depth Elevation

Earthquake Activity

City Distance Mag. Time & Date
Minimum magnitude displayed is 2.5.

Coastal Water Temperatures

Place Temperature

Nearby Weather Stations